sensor_id;sensor_type;location;lat;lon;timestamp;temperature;humidity
2202;DHT22;1107;48.654;9.250;2023-09-19T00:00:56;15.70;99.90
2202;DHT22;1107;48.654;9.250;2023-09-19T00:03:23;15.70;99.90
2202;DHT22;1107;48.654;9.250;2023-09-19T00:05:53;15.70;99.90
2202;DHT22;1107;48.654;9.250;2023-09-19T00:08:21;15.60;99.90
2202;DHT22;1107;48.654;9.250;2023-09-19T00:10:50;15.60;99.90
2202;DHT22;1107;48.654;9.250;2023-09-19T00:13:19;15.50;99.90
2202;DHT22;1107;48.654;9.250;2023-09-19T00:15:47;15.50;99.90
2202;DHT22;1107;48.654;9.250;2023-09-19T00:18:15;15.50;99.90
2202;DHT22;1107;48.654;9.250;2023-09-19T00:20:42;15.50;99.90
2202;DHT22;1107;48.654;9.250;2023-09-19T00:23:14;15.50;99.90
2202;DHT22;1107;48.654;9.250;2023-09-19T00:25:42;15.50;99.90
2202;DHT22;1107;48.654;9.250;2023-09-19T00:28:09;15.50;99.90
2202;DHT22;1107;48.654;9.250;2023-09-19T00:30:36;15.60;99.90
2202;DHT22;1107;48.654;9.250;2023-09-19T00:33:04;15.60;99.90
2202;DHT22;1107;48.654;9.250;2023-09-19T00:35:33;15.60;99.90
2202;DHT22;1107;48.654;9.250;2023-09-19T00:38:00;15.60;99.90
2202;DHT22;1107;48.654;9.250;2023-09-19T00:40:28;15.60;99.90
2202;DHT22;1107;48.654;9.250;2023-09-19T00:42:58;15.60;99.90
2202;DHT22;1107;48.654;9.250;2023-09-19T00:45:27;15.60;99.90
2202;DHT22;1107;48.654;9.250;2023-09-19T00:47:54;15.70;99.90
2202;DHT22;1107;48.654;9.250;2023-09-19T00:50:24;15.70;99.90
2202;DHT22;1107;48.654;9.250;2023-09-19T00:52:55;15.70;99.90
2202;DHT22;1107;48.654;9.250;2023-09-19T00:55:24;15.70;99.90
2202;DHT22;1107;48.654;9.250;2023-09-19T00:57:52;15.80;99.90
2202;DHT22;1107;48.654;9.250;2023-09-19T01:00:20;15.80;99.90
2202;DHT22;1107;48.654;9.250;2023-09-19T01:02:47;15.80;99.90
2202;DHT22;1107;48.654;9.250;2023-09-19T01:05:14;15.80;99.90
2202;DHT22;1107;48.654;9.250;2023-09-19T01:07:41;15.80;99.90
2202;DHT22;1107;48.654;9.250;2023-09-19T01:10:11;15.90;99.90
2202;DHT22;1107;48.654;9.250;2023-09-19T01:12:48;15.90;99.90
2202;DHT22;1107;48.654;9.250;2023-09-19T01:15:23;15.90;99.90
2202;DHT22;1107;48.654;9.250;2023-09-19T01:18:00;15.90;99.90
2202;DHT22;1107;48.654;9.250;2023-09-19T01:20:38;16.00;99.90
2202;DHT22;1107;48.654;9.250;2023-09-19T01:23:13;16.00;99.90
2202;DHT22;1107;48.654;9.250;2023-09-19T01:26:02;16.00;99.90
2202;DHT22;1107;48.654;9.250;2023-09-19T01:28:34;16.00;99.90
2202;DHT22;1107;48.654;9.250;2023-09-19T01:31:10;16.00;99.90
2202;DHT22;1107;48.654;9.250;2023-09-19T01:33:58;16.10;99.90
2202;DHT22;1107;48.654;9.250;2023-09-19T01:36:30;16.10;99.90
2202;DHT22;1107;48.654;9.250;2023-09-19T01:39:00;16.10;99.90
2202;DHT22;1107;48.654;9.250;2023-09-19T01:41:49;16.10;99.90
2202;DHT22;1107;48.654;9.250;2023-09-19T01:44:24;16.10;99.90
2202;DHT22;1107;48.654;9.250;2023-09-19T01:46:54;16.10;99.90
2202;DHT22;1107;48.654;9.250;2023-09-19T01:49:32;16.10;99.90
2202;DHT22;1107;48.654;9.250;2023-09-19T01:52:05;16.10;99.90
2202;DHT22;1107;48.654;9.250;2023-09-19T01:54:44;16.10;99.90
2202;DHT22;1107;48.654;9.250;2023-09-19T01:57:17;16.10;99.90
2202;DHT22;1107;48.654;9.250;2023-09-19T01:59:50;16.10;99.90
2202;DHT22;1107;48.654;9.250;2023-09-19T02:02:20;16.10;99.90
2202;DHT22;1107;48.654;9.250;2023-09-19T02:04:48;16.10;99.90
2202;DHT22;1107;48.654;9.250;2023-09-19T02:07:16;16.10;99.90
2202;DHT22;1107;48.654;9.250;2023-09-19T02:09:43;16.00;99.90
2202;DHT22;1107;48.654;9.250;2023-09-19T02:12:10;16.00;99.90
2202;DHT22;1107;48.654;9.250;2023-09-19T02:14:37;16.00;99.90
2202;DHT22;1107;48.654;9.250;2023-09-19T02:17:04;16.00;99.90
2202;DHT22;1107;48.654;9.250;2023-09-19T02:19:34;16.00;99.90
2202;DHT22;1107;48.654;9.250;2023-09-19T02:22:02;16.00;99.90
2202;DHT22;1107;48.654;9.250;2023-09-19T02:24:33;16.00;99.90
2202;DHT22;1107;48.654;9.250;2023-09-19T02:27:00;15.90;99.90
2202;DHT22;1107;48.654;9.250;2023-09-19T02:29:29;15.90;99.90
2202;DHT22;1107;48.654;9.250;2023-09-19T02:31:56;15.90;99.90
2202;DHT22;1107;48.654;9.250;2023-09-19T02:34:24;15.90;99.90
2202;DHT22;1107;48.654;9.250;2023-09-19T02:36:52;15.90;99.90
2202;DHT22;1107;48.654;9.250;2023-09-19T02:39:21;15.90;99.90
2202;DHT22;1107;48.654;9.250;2023-09-19T02:41:49;15.80;99.90
2202;DHT22;1107;48.654;9.250;2023-09-19T02:44:16;15.80;99.90
2202;DHT22;1107;48.654;9.250;2023-09-19T02:46:45;15.80;99.90
2202;DHT22;1107;48.654;9.250;2023-09-19T02:49:14;15.70;99.90
2202;DHT22;1107;48.654;9.250;2023-09-19T02:51:41;15.70;99.90
2202;DHT22;1107;48.654;9.250;2023-09-19T02:54:09;15.60;99.90
2202;DHT22;1107;48.654;9.250;2023-09-19T02:56:37;15.60;99.90
2202;DHT22;1107;48.654;9.250;2023-09-19T02:59:05;15.60;99.90
2202;DHT22;1107;48.654;9.250;2023-09-19T03:01:32;15.50;99.90
2202;DHT22;1107;48.654;9.250;2023-09-19T03:04:00;15.50;99.90
2202;DHT22;1107;48.654;9.250;2023-09-19T03:06:28;15.50;99.90
2202;DHT22;1107;48.654;9.250;2023-09-19T03:08:56;15.50;99.90
2202;DHT22;1107;48.654;9.250;2023-09-19T03:11:27;15.50;99.90
2202;DHT22;1107;48.654;9.250;2023-09-19T03:13:54;15.50;99.90
2202;DHT22;1107;48.654;9.250;2023-09-19T03:16:21;15.50;99.90
2202;DHT22;1107;48.654;9.250;2023-09-19T03:18:48;15.50;99.90
2202;DHT22;1107;48.654;9.250;2023-09-19T03:21:15;15.50;99.90
2202;DHT22;1107;48.654;9.250;2023-09-19T03:23:43;15.50;99.90
2202;DHT22;1107;48.654;9.250;2023-09-19T03:26:11;15.50;99.90
2202;DHT22;1107;48.654;9.250;2023-09-19T03:28:41;15.60;99.90
2202;DHT22;1107;48.654;9.250;2023-09-19T03:31:09;15.60;99.90
2202;DHT22;1107;48.654;9.250;2023-09-19T03:33:36;15.60;99.90
2202;DHT22;1107;48.654;9.250;2023-09-19T03:36:04;15.60;99.90
2202;DHT22;1107;48.654;9.250;2023-09-19T03:38:31;15.60;99.90
2202;DHT22;1107;48.654;9.250;2023-09-19T03:40:59;15.50;99.90
2202;DHT22;1107;48.654;9.250;2023-09-19T03:43:26;15.60;99.90
2202;DHT22;1107;48.654;9.250;2023-09-19T03:45:55;15.50;99.90
2202;DHT22;1107;48.654;9.250;2023-09-19T03:48:23;15.50;99.90
2202;DHT22;1107;48.654;9.250;2023-09-19T03:50:49;15.50;99.90
2202;DHT22;1107;48.654;9.250;2023-09-19T03:53:18;15.50;99.90
2202;DHT22;1107;48.654;9.250;2023-09-19T03:55:45;15.50;99.90
2202;DHT22;1107;48.654;9.250;2023-09-19T03:58:12;15.50;99.90
2202;DHT22;1107;48.654;9.250;2023-09-19T04:00:39;15.50;99.90
2202;DHT22;1107;48.654;9.250;2023-09-19T04:03:08;15.40;99.90
2202;DHT22;1107;48.654;9.250;2023-09-19T04:05:36;15.40;99.90
2202;DHT22;1107;48.654;9.250;2023-09-19T04:08:03;15.40;99.90
2202;DHT22;1107;48.654;9.250;2023-09-19T04:10:30;15.40;99.90
2202;DHT22;1107;48.654;9.250;2023-09-19T04:12:57;15.30;99.90
2202;DHT22;1107;48.654;9.250;2023-09-19T04:15:24;15.40;99.90
2202;DHT22;1107;48.654;9.250;2023-09-19T04:17:51;15.30;99.90
2202;DHT22;1107;48.654;9.250;2023-09-19T04:20:20;15.30;99.90
2202;DHT22;1107;48.654;9.250;2023-09-19T04:22:48;15.30;99.90
2202;DHT22;1107;48.654;9.250;2023-09-19T04:25:15;15.30;99.90
2202;DHT22;1107;48.654;9.250;2023-09-19T04:27:44;15.30;99.90
2202;DHT22;1107;48.654;9.250;2023-09-19T04:30:11;15.20;99.90
2202;DHT22;1107;48.654;9.250;2023-09-19T04:32:40;15.20;99.90
2202;DHT22;1107;48.654;9.250;2023-09-19T04:35:08;15.20;99.90
2202;DHT22;1107;48.654;9.250;2023-09-19T04:37:38;15.20;99.90
2202;DHT22;1107;48.654;9.250;2023-09-19T04:40:07;15.10;99.90
2202;DHT22;1107;48.654;9.250;2023-09-19T04:42:39;15.10;99.90
2202;DHT22;1107;48.654;9.250;2023-09-19T04:45:07;15.00;99.90
2202;DHT22;1107;48.654;9.250;2023-09-19T04:47:35;15.00;99.90
2202;DHT22;1107;48.654;9.250;2023-09-19T04:50:06;15.00;99.90
2202;DHT22;1107;48.654;9.250;2023-09-19T04:52:40;15.00;99.90
2202;DHT22;1107;48.654;9.250;2023-09-19T04:55:10;15.00;99.90
2202;DHT22;1107;48.654;9.250;2023-09-19T04:57:43;15.00;99.90
2202;DHT22;1107;48.654;9.250;2023-09-19T05:00:12;15.10;99.90
2202;DHT22;1107;48.654;9.250;2023-09-19T05:02:40;15.20;99.90
2202;DHT22;1107;48.654;9.250;2023-09-19T05:05:08;15.20;99.90
2202;DHT22;1107;48.654;9.250;2023-09-19T05:07:36;15.30;99.90
2202;DHT22;1107;48.654;9.250;2023-09-19T05:10:05;15.30;99.90
2202;DHT22;1107;48.654;9.250;2023-09-19T05:12:33;15.40;99.90
2202;DHT22;1107;48.654;9.250;2023-09-19T05:15:00;15.40;99.90
2202;DHT22;1107;48.654;9.250;2023-09-19T05:17:28;15.40;99.90
2202;DHT22;1107;48.654;9.250;2023-09-19T05:19:55;15.50;99.90
2202;DHT22;1107;48.654;9.250;2023-09-19T05:22:22;15.50;99.90
2202;DHT22;1107;48.654;9.250;2023-09-19T05:24:50;15.60;99.90
2202;DHT22;1107;48.654;9.250;2023-09-19T05:27:20;15.60;99.90
2202;DHT22;1107;48.654;9.250;2023-09-19T05:29:47;15.40;99.90
2202;DHT22;1107;48.654;9.250;2023-09-19T05:32:14;15.60;99.90
2202;DHT22;1107;48.654;9.250;2023-09-19T05:34:41;15.60;99.90
2202;DHT22;1107;48.654;9.250;2023-09-19T05:37:08;15.60;99.90
2202;DHT22;1107;48.654;9.250;2023-09-19T05:39:35;15.70;99.90
2202;DHT22;1107;48.654;9.250;2023-09-19T05:42:03;15.70;99.90
2202;DHT22;1107;48.654;9.250;2023-09-19T05:44:31;15.70;99.90
2202;DHT22;1107;48.654;9.250;2023-09-19T05:46:59;15.70;99.90
2202;DHT22;1107;48.654;9.250;2023-09-19T05:49:26;15.60;99.90
2202;DHT22;1107;48.654;9.250;2023-09-19T05:51:53;15.60;99.90
2202;DHT22;1107;48.654;9.250;2023-09-19T05:54:24;15.50;99.90
2202;DHT22;1107;48.654;9.250;2023-09-19T05:56:50;15.50;99.90
2202;DHT22;1107;48.654;9.250;2023-09-19T05:59:18;15.50;99.90
2202;DHT22;1107;48.654;9.250;2023-09-19T06:01:46;15.50;99.90
2202;DHT22;1107;48.654;9.250;2023-09-19T06:04:13;15.50;99.90
2202;DHT22;1107;48.654;9.250;2023-09-19T06:06:40;15.50;99.90
2202;DHT22;1107;48.654;9.250;2023-09-19T06:09:08;15.50;99.90
2202;DHT22;1107;48.654;9.250;2023-09-19T06:11:35;15.50;99.90
2202;DHT22;1107;48.654;9.250;2023-09-19T06:14:02;15.50;99.90
2202;DHT22;1107;48.654;9.250;2023-09-19T06:16:29;15.60;99.90
2202;DHT22;1107;48.654;9.250;2023-09-19T06:18:59;15.50;99.90
2202;DHT22;1107;48.654;9.250;2023-09-19T06:21:27;15.50;99.90
2202;DHT22;1107;48.654;9.250;2023-09-19T06:23:54;15.50;99.90
2202;DHT22;1107;48.654;9.250;2023-09-19T06:26:21;15.50;99.90
2202;DHT22;1107;48.654;9.250;2023-09-19T06:28:49;15.60;99.90
2202;DHT22;1107;48.654;9.250;2023-09-19T06:31:15;15.60;99.90
2202;DHT22;1107;48.654;9.250;2023-09-19T06:33:42;15.60;99.90
2202;DHT22;1107;48.654;9.250;2023-09-19T06:36:11;15.70;99.90
2202;DHT22;1107;48.654;9.250;2023-09-19T06:38:38;15.80;99.90
2202;DHT22;1107;48.654;9.250;2023-09-19T06:41:06;15.90;99.90
2202;DHT22;1107;48.654;9.250;2023-09-19T06:43:34;15.90;99.90
2202;DHT22;1107;48.654;9.250;2023-09-19T06:46:01;15.90;99.90
2202;DHT22;1107;48.654;9.250;2023-09-19T06:48:29;16.00;99.90
2202;DHT22;1107;48.654;9.250;2023-09-19T06:50:57;16.00;99.90
2202;DHT22;1107;48.654;9.250;2023-09-19T06:53:31;16.10;99.90
2202;DHT22;1107;48.654;9.250;2023-09-19T06:56:00;16.30;99.90
2202;DHT22;1107;48.654;9.250;2023-09-19T06:58:27;16.50;99.90
2202;DHT22;1107;48.654;9.250;2023-09-19T07:00:54;16.70;99.90
2202;DHT22;1107;48.654;9.250;2023-09-19T07:03:22;16.90;99.90
2202;DHT22;1107;48.654;9.250;2023-09-19T07:05:52;17.10;99.90
2202;DHT22;1107;48.654;9.250;2023-09-19T07:08:21;17.50;99.90
2202;DHT22;1107;48.654;9.250;2023-09-19T07:10:50;17.90;99.90
2202;DHT22;1107;48.654;9.250;2023-09-19T07:13:18;18.10;99.90
2202;DHT22;1107;48.654;9.250;2023-09-19T07:15:45;18.40;99.90
2202;DHT22;1107;48.654;9.250;2023-09-19T07:18:16;18.70;99.90
2202;DHT22;1107;48.654;9.250;2023-09-19T07:20:44;18.90;99.90
2202;DHT22;1107;48.654;9.250;2023-09-19T07:23:14;18.90;99.90
2202;DHT22;1107;48.654;9.250;2023-09-19T07:25:42;18.80;99.90
2202;DHT22;1107;48.654;9.250;2023-09-19T07:28:10;18.80;99.90
2202;DHT22;1107;48.654;9.250;2023-09-19T07:30:37;18.90;99.90
2202;DHT22;1107;48.654;9.250;2023-09-19T07:33:05;18.90;99.90
2202;DHT22;1107;48.654;9.250;2023-09-19T07:35:32;18.90;99.90
2202;DHT22;1107;48.654;9.250;2023-09-19T07:37:59;18.90;99.90
2202;DHT22;1107;48.654;9.250;2023-09-19T07:40:28;19.10;99.90
2202;DHT22;1107;48.654;9.250;2023-09-19T07:42:55;19.30;99.90
2202;DHT22;1107;48.654;9.250;2023-09-19T07:45:24;19.40;99.90
2202;DHT22;1107;48.654;9.250;2023-09-19T07:47:51;19.50;99.90
2202;DHT22;1107;48.654;9.250;2023-09-19T07:50:19;19.70;99.90
2202;DHT22;1107;48.654;9.250;2023-09-19T07:52:46;19.90;99.90
2202;DHT22;1107;48.654;9.250;2023-09-19T07:55:13;20.10;99.90
2202;DHT22;1107;48.654;9.250;2023-09-19T07:57:43;20.50;99.90
2202;DHT22;1107;48.654;9.250;2023-09-19T08:00:11;20.70;99.90
2202;DHT22;1107;48.654;9.250;2023-09-19T08:02:40;20.80;99.90
2202;DHT22;1107;48.654;9.250;2023-09-19T08:05:08;20.50;99.90
2202;DHT22;1107;48.654;9.250;2023-09-19T08:07:36;20.60;99.90
2202;DHT22;1107;48.654;9.250;2023-09-19T08:10:04;20.50;99.90
2202;DHT22;1107;48.654;9.250;2023-09-19T08:12:33;21.10;99.90
2202;DHT22;1107;48.654;9.250;2023-09-19T08:15:01;21.60;99.90
2202;DHT22;1107;48.654;9.250;2023-09-19T08:17:28;21.90;99.90
2202;DHT22;1107;48.654;9.250;2023-09-19T08:19:57;22.50;99.90
2202;DHT22;1107;48.654;9.250;2023-09-19T08:22:24;22.20;99.90
2202;DHT22;1107;48.654;9.250;2023-09-19T08:24:51;22.40;99.90
2202;DHT22;1107;48.654;9.250;2023-09-19T08:27:18;23.00;99.90
2202;DHT22;1107;48.654;9.250;2023-09-19T08:29:45;23.20;99.90
2202;DHT22;1107;48.654;9.250;2023-09-19T08:32:12;23.20;99.90
2202;DHT22;1107;48.654;9.250;2023-09-19T08:34:40;21.80;99.90
2202;DHT22;1107;48.654;9.250;2023-09-19T08:37:08;22.50;99.90
2202;DHT22;1107;48.654;9.250;2023-09-19T08:39:36;23.00;99.90
2202;DHT22;1107;48.654;9.250;2023-09-19T08:42:03;23.80;99.90
2202;DHT22;1107;48.654;9.250;2023-09-19T08:44:31;23.40;99.90
2202;DHT22;1107;48.654;9.250;2023-09-19T08:47:08;23.50;99.90
2202;DHT22;1107;48.654;9.250;2023-09-19T08:49:41;23.50;99.90
2202;DHT22;1107;48.654;9.250;2023-09-19T08:52:20;23.30;99.90
2202;DHT22;1107;48.654;9.250;2023-09-19T08:54:51;23.10;99.90
2202;DHT22;1107;48.654;9.250;2023-09-19T08:57:19;22.20;99.90
2202;DHT22;1107;48.654;9.250;2023-09-19T08:59:48;21.30;99.90
2202;DHT22;1107;48.654;9.250;2023-09-19T09:02:16;20.50;99.90
2202;DHT22;1107;48.654;9.250;2023-09-19T09:04:45;20.60;99.90
2202;DHT22;1107;48.654;9.250;2023-09-19T09:07:14;20.80;99.90
2202;DHT22;1107;48.654;9.250;2023-09-19T09:09:42;21.50;99.90
2202;DHT22;1107;48.654;9.250;2023-09-19T09:12:12;22.00;99.90
2202;DHT22;1107;48.654;9.250;2023-09-19T09:14:39;23.10;99.90
2202;DHT22;1107;48.654;9.250;2023-09-19T09:17:07;23.40;99.90
2202;DHT22;1107;48.654;9.250;2023-09-19T09:19:34;23.90;99.90
2202;DHT22;1107;48.654;9.250;2023-09-19T09:22:08;23.40;99.90
2202;DHT22;1107;48.654;9.250;2023-09-19T09:24:37;24.10;99.90
2202;DHT22;1107;48.654;9.250;2023-09-19T09:27:06;23.20;99.90
2202;DHT22;1107;48.654;9.250;2023-09-19T09:29:42;22.90;99.90
2202;DHT22;1107;48.654;9.250;2023-09-19T09:32:19;22.00;99.90
2202;DHT22;1107;48.654;9.250;2023-09-19T09:34:50;21.90;99.90
2202;DHT22;1107;48.654;9.250;2023-09-19T09:37:18;22.60;99.90
2202;DHT22;1107;48.654;9.250;2023-09-19T09:39:51;22.40;99.90
2202;DHT22;1107;48.654;9.250;2023-09-19T09:42:32;23.00;99.90
2202;DHT22;1107;48.654;9.250;2023-09-19T09:45:17;22.80;99.90
2202;DHT22;1107;48.654;9.250;2023-09-19T09:47:45;24.40;99.90
2202;DHT22;1107;48.654;9.250;2023-09-19T09:50:29;25.30;99.90
2202;DHT22;1107;48.654;9.250;2023-09-19T09:53:25;24.80;99.90
2202;DHT22;1107;48.654;9.250;2023-09-19T09:56:00;25.50;99.90
2202;DHT22;1107;48.654;9.250;2023-09-19T09:58:28;25.30;99.90
2202;DHT22;1107;48.654;9.250;2023-09-19T10:00:57;25.60;99.90
2202;DHT22;1107;48.654;9.250;2023-09-19T10:03:32;25.30;99.90
2202;DHT22;1107;48.654;9.250;2023-09-19T10:06:05;24.80;99.90
2202;DHT22;1107;48.654;9.250;2023-09-19T10:09:04;24.40;99.90
2202;DHT22;1107;48.654;9.250;2023-09-19T10:11:45;24.80;99.90
2202;DHT22;1107;48.654;9.250;2023-09-19T10:14:13;24.00;99.90
2202;DHT22;1107;48.654;9.250;2023-09-19T10:16:45;24.50;99.90
2202;DHT22;1107;48.654;9.250;2023-09-19T10:19:16;24.60;99.90
2202;DHT22;1107;48.654;9.250;2023-09-19T10:21:44;24.50;99.90
2202;DHT22;1107;48.654;9.250;2023-09-19T10:24:11;24.70;99.90
2202;DHT22;1107;48.654;9.250;2023-09-19T10:26:44;25.30;99.90
2202;DHT22;1107;48.654;9.250;2023-09-19T10:29:13;26.20;99.90
2202;DHT22;1107;48.654;9.250;2023-09-19T10:31:42;25.90;99.90
2202;DHT22;1107;48.654;9.250;2023-09-19T10:34:14;26.40;99.90
2202;DHT22;1107;48.654;9.250;2023-09-19T10:36:45;26.90;99.90
2202;DHT22;1107;48.654;9.250;2023-09-19T10:39:14;26.30;99.90
2202;DHT22;1107;48.654;9.250;2023-09-19T10:41:49;26.10;99.90
2202;DHT22;1107;48.654;9.250;2023-09-19T10:44:23;27.10;99.90
2202;DHT22;1107;48.654;9.250;2023-09-19T10:46:51;26.90;99.90
2202;DHT22;1107;48.654;9.250;2023-09-19T10:49:19;27.20;99.90
2202;DHT22;1107;48.654;9.250;2023-09-19T10:51:47;27.10;99.90
2202;DHT22;1107;48.654;9.250;2023-09-19T10:54:18;28.20;99.90
2202;DHT22;1107;48.654;9.250;2023-09-19T10:56:49;28.50;99.90
2202;DHT22;1107;48.654;9.250;2023-09-19T10:59:18;28.70;99.90
2202;DHT22;1107;48.654;9.250;2023-09-19T11:01:47;28.80;99.90
2202;DHT22;1107;48.654;9.250;2023-09-19T11:04:37;29.50;99.90
2202;DHT22;1107;48.654;9.250;2023-09-19T11:07:06;30.00;99.90
2202;DHT22;1107;48.654;9.250;2023-09-19T11:09:49;30.30;99.90
2202;DHT22;1107;48.654;9.250;2023-09-19T11:18:56;30.80;99.90
2202;DHT22;1107;48.654;9.250;2023-09-19T11:21:53;31.20;99.90
2202;DHT22;1107;48.654;9.250;2023-09-19T11:24:30;31.30;99.90
2202;DHT22;1107;48.654;9.250;2023-09-19T11:27:25;31.10;99.90
2202;DHT22;1107;48.654;9.250;2023-09-19T11:30:27;31.30;99.90
2202;DHT22;1107;48.654;9.250;2023-09-19T11:33:18;31.80;99.90
2202;DHT22;1107;48.654;9.250;2023-09-19T11:36:02;32.60;99.90
2202;DHT22;1107;48.654;9.250;2023-09-19T11:38:57;32.90;99.90
2202;DHT22;1107;48.654;9.250;2023-09-19T11:41:39;32.20;99.90
2202;DHT22;1107;48.654;9.250;2023-09-19T11:44:31;31.60;95.40
2202;DHT22;1107;48.654;9.250;2023-09-19T11:47:02;32.10;96.70
2202;DHT22;1107;48.654;9.250;2023-09-19T11:49:30;31.40;93.00
2202;DHT22;1107;48.654;9.250;2023-09-19T11:51:58;30.50;84.90
2202;DHT22;1107;48.654;9.250;2023-09-19T11:54:27;29.80;80.40
2202;DHT22;1107;48.654;9.250;2023-09-19T11:56:57;29.50;79.20
2202;DHT22;1107;48.654;9.250;2023-09-19T11:59:25;28.60;75.20
2202;DHT22;1107;48.654;9.250;2023-09-19T12:01:54;28.00;68.90
2202;DHT22;1107;48.654;9.250;2023-09-19T12:04:35;26.70;60.60
2202;DHT22;1107;48.654;9.250;2023-09-19T12:07:05;27.20;69.20
2202;DHT22;1107;48.654;9.250;2023-09-19T12:09:32;27.80;79.80
2202;DHT22;1107;48.654;9.250;2023-09-19T12:11:59;27.80;77.90
2202;DHT22;1107;48.654;9.250;2023-09-19T12:14:26;27.80;78.40
2202;DHT22;1107;48.654;9.250;2023-09-19T12:16:54;28.70;87.20
2202;DHT22;1107;48.654;9.250;2023-09-19T12:19:22;30.10;92.20
2202;DHT22;1107;48.654;9.250;2023-09-19T12:21:57;31.00;93.40
2202;DHT22;1107;48.654;9.250;2023-09-19T12:24:26;31.50;91.90
2202;DHT22;1107;48.654;9.250;2023-09-19T12:26:59;32.40;94.00
2202;DHT22;1107;48.654;9.250;2023-09-19T12:29:30;32.80;92.80
2202;DHT22;1107;48.654;9.250;2023-09-19T12:31:58;33.00;87.20
2202;DHT22;1107;48.654;9.250;2023-09-19T12:34:30;33.40;82.80
2202;DHT22;1107;48.654;9.250;2023-09-19T12:37:06;33.70;81.00
2202;DHT22;1107;48.654;9.250;2023-09-19T12:39:38;34.00;77.70
2202;DHT22;1107;48.654;9.250;2023-09-19T12:42:08;32.90;62.90
2202;DHT22;1107;48.654;9.250;2023-09-19T12:44:36;32.30;54.40
2202;DHT22;1107;48.654;9.250;2023-09-19T12:47:11;32.60;57.70
2202;DHT22;1107;48.654;9.250;2023-09-19T12:50:09;33.40;60.10
2202;DHT22;1107;48.654;9.250;2023-09-19T12:52:46;33.50;58.80
2202;DHT22;1107;48.654;9.250;2023-09-19T12:55:21;33.00;51.10
2202;DHT22;1107;48.654;9.250;2023-09-19T12:57:57;33.10;52.40
2202;DHT22;1107;48.654;9.250;2023-09-19T13:00:32;32.80;47.20
2202;DHT22;1107;48.654;9.250;2023-09-19T13:03:12;32.50;46.20
2202;DHT22;1107;48.654;9.250;2023-09-19T13:05:48;32.60;67.60
2202;DHT22;1107;48.654;9.250;2023-09-19T13:08:25;32.80;45.00
2202;DHT22;1107;48.654;9.250;2023-09-19T13:11:04;31.10;35.20
2202;DHT22;1107;48.654;9.250;2023-09-19T13:13:35;30.90;33.10
2202;DHT22;1107;48.654;9.250;2023-09-19T13:16:03;31.50;36.50
2202;DHT22;1107;48.654;9.250;2023-09-19T13:18:45;31.00;35.90
2202;DHT22;1107;48.654;9.250;2023-09-19T13:21:13;31.10;35.50
2202;DHT22;1107;48.654;9.250;2023-09-19T13:23:51;30.90;33.90
2202;DHT22;1107;48.654;9.250;2023-09-19T13:26:18;29.30;27.50
2202;DHT22;1107;48.654;9.250;2023-09-19T13:28:45;30.20;33.90
2202;DHT22;1107;48.654;9.250;2023-09-19T13:31:13;30.50;35.20
2202;DHT22;1107;48.654;9.250;2023-09-19T13:33:44;31.00;39.10
2202;DHT22;1107;48.654;9.250;2023-09-19T13:36:11;31.20;40.40
2202;DHT22;1107;48.654;9.250;2023-09-19T13:38:39;30.10;35.30
2202;DHT22;1107;48.654;9.250;2023-09-19T13:41:07;30.20;31.80
2202;DHT22;1107;48.654;9.250;2023-09-19T13:43:35;29.90;31.60
2202;DHT22;1107;48.654;9.250;2023-09-19T13:46:02;30.10;30.90
2202;DHT22;1107;48.654;9.250;2023-09-19T13:48:29;29.70;27.70
2202;DHT22;1107;48.654;9.250;2023-09-19T13:50:56;28.30;23.10
2202;DHT22;1107;48.654;9.250;2023-09-19T13:53:23;28.10;22.30
2202;DHT22;1107;48.654;9.250;2023-09-19T13:55:51;28.40;22.00
2202;DHT22;1107;48.654;9.250;2023-09-19T13:58:20;28.90;25.00
2202;DHT22;1107;48.654;9.250;2023-09-19T14:00:47;29.40;27.10
2202;DHT22;1107;48.654;9.250;2023-09-19T14:03:14;28.70;24.70
2202;DHT22;1107;48.654;9.250;2023-09-19T14:05:41;28.50;22.00
2202;DHT22;1107;48.654;9.250;2023-09-19T14:08:08;28.50;22.10
2202;DHT22;1107;48.654;9.250;2023-09-19T14:10:35;29.30;25.90
2202;DHT22;1107;48.654;9.250;2023-09-19T14:13:02;28.90;23.70
2202;DHT22;1107;48.654;9.250;2023-09-19T14:15:31;28.80;22.30
2202;DHT22;1107;48.654;9.250;2023-09-19T14:18:00;29.60;25.30
2202;DHT22;1107;48.654;9.250;2023-09-19T14:20:27;29.70;27.00
2202;DHT22;1107;48.654;9.250;2023-09-19T14:22:54;29.50;25.20
2202;DHT22;1107;48.654;9.250;2023-09-19T14:25:21;28.80;21.30
2202;DHT22;1107;48.654;9.250;2023-09-19T14:27:48;28.70;19.30
2202;DHT22;1107;48.654;9.250;2023-09-19T14:30:15;28.40;18.50
2202;DHT22;1107;48.654;9.250;2023-09-19T14:32:44;28.50;18.90
2202;DHT22;1107;48.654;9.250;2023-09-19T14:35:11;27.70;15.80
2202;DHT22;1107;48.654;9.250;2023-09-19T14:37:40;27.30;15.40
2202;DHT22;1107;48.654;9.250;2023-09-19T14:40:08;27.60;15.60
2202;DHT22;1107;48.654;9.250;2023-09-19T14:42:38;27.30;14.80
2202;DHT22;1107;48.654;9.250;2023-09-19T14:45:06;27.40;14.80
2202;DHT22;1107;48.654;9.250;2023-09-19T14:47:34;27.00;14.20
2202;DHT22;1107;48.654;9.250;2023-09-19T14:50:03;26.90;14.40
2202;DHT22;1107;48.654;9.250;2023-09-19T14:52:32;26.70;14.60
2202;DHT22;1107;48.654;9.250;2023-09-19T14:55:00;26.10;12.40
2202;DHT22;1107;48.654;9.250;2023-09-19T14:57:27;26.50;13.90
2202;DHT22;1107;48.654;9.250;2023-09-19T14:59:55;26.50;15.90
2202;DHT22;1107;48.654;9.250;2023-09-19T15:02:22;26.20;13.40
2202;DHT22;1107;48.654;9.250;2023-09-19T15:04:49;24.90;11.10
2202;DHT22;1107;48.654;9.250;2023-09-19T15:07:17;25.60;11.30
2202;DHT22;1107;48.654;9.250;2023-09-19T15:09:45;25.70;13.00
2202;DHT22;1107;48.654;9.250;2023-09-19T15:12:12;25.20;10.80
2202;DHT22;1107;48.654;9.250;2023-09-19T15:14:40;25.00;10.70
2202;DHT22;1107;48.654;9.250;2023-09-19T15:17:08;24.50;9.60
2202;DHT22;1107;48.654;9.250;2023-09-19T15:19:35;24.40;23.60
2202;DHT22;1107;48.654;9.250;2023-09-19T15:22:04;24.40;10.80
2202;DHT22;1107;48.654;9.250;2023-09-19T15:24:33;23.90;9.20
2202;DHT22;1107;48.654;9.250;2023-09-19T15:27:00;23.60;9.20
2202;DHT22;1107;48.654;9.250;2023-09-19T15:29:27;23.50;9.90
2202;DHT22;1107;48.654;9.250;2023-09-19T15:31:55;22.80;9.50
2202;DHT22;1107;48.654;9.250;2023-09-19T15:34:27;22.90;11.20
2202;DHT22;1107;48.654;9.250;2023-09-19T15:36:54;23.00;13.20
2202;DHT22;1107;48.654;9.250;2023-09-19T15:39:21;23.10;15.90
2202;DHT22;1107;48.654;9.250;2023-09-19T15:41:50;23.10;15.30
2202;DHT22;1107;48.654;9.250;2023-09-19T15:44:18;23.10;17.60
2202;DHT22;1107;48.654;9.250;2023-09-19T15:46:46;22.90;15.50
2202;DHT22;1107;48.654;9.250;2023-09-19T15:49:13;22.80;15.90
2202;DHT22;1107;48.654;9.250;2023-09-19T15:51:40;22.60;16.30
2202;DHT22;1107;48.654;9.250;2023-09-19T15:54:10;22.50;17.60
2202;DHT22;1107;48.654;9.250;2023-09-19T15:56:38;22.30;17.30
2202;DHT22;1107;48.654;9.250;2023-09-19T15:59:08;22.10;17.60
2202;DHT22;1107;48.654;9.250;2023-09-19T16:01:38;22.20;18.50
2202;DHT22;1107;48.654;9.250;2023-09-19T16:04:06;22.20;19.30
2202;DHT22;1107;48.654;9.250;2023-09-19T16:06:35;22.10;20.80
2202;DHT22;1107;48.654;9.250;2023-09-19T16:09:04;22.10;21.40
2202;DHT22;1107;48.654;9.250;2023-09-19T16:11:32;22.10;23.10
2202;DHT22;1107;48.654;9.250;2023-09-19T16:14:01;22.00;22.90
2202;DHT22;1107;48.654;9.250;2023-09-19T16:16:29;21.90;24.10
2202;DHT22;1107;48.654;9.250;2023-09-19T16:19:00;21.80;24.40
2202;DHT22;1107;48.654;9.250;2023-09-19T16:21:29;21.70;24.40
2202;DHT22;1107;48.654;9.250;2023-09-19T16:23:57;21.60;25.70
2202;DHT22;1107;48.654;9.250;2023-09-19T16:26:25;21.70;27.00